Latest Weather Observations for Rottnest Island

IDW60901

Issued at 11:25 pm WST Thursday 17 April 2014 (issued every 10 minutes, with the page automatically refreshed every 10 minutes)

About weather observations | Map of Perth area stations | Latest observations for Perth area | Other Formats
Station Details ID: 009193 Name: ROTTNEST ISLAND Lat: -32.01 Lon: 115.50 Height: 43.1 m
Data from the previous 72 hours. | See also: Recent months at Rottnest Island
Date/Time
WST
Tmp

°C
App
Tmp
°C
Dew
Point
°C
Rel
Hum
%
Delta-T

°C
Wind Press
QNH
hPa
Press
MSL
hPa
Rain
since
9 am
mm
Dir
 
Spd
km/h
Gust
km/h
Spd
kts
Gust
kts
17/11:00pm 20.1 13.5 13.6 66 3.7 SSE 41 50 22 27 1021.6 - 0.0
17/10:30pm 20.4 13.7 13.4 64 4.0 SSE 41 48 22 26 1021.8 - 0.0
17/10:00pm 20.6 14.6 14.3 67 3.7 SSE 39 48 21 26 1022.0 - 0.0
17/09:30pm 20.8 14.7 14.2 66 3.8 S 39 46 21 25 1021.9 - 0.0
17/09:00pm 20.7 14.9 13.9 65 3.9 S 37 46 20 25 1021.9 1021.7 0.0
17/08:30pm 20.7 14.7 14.4 67 3.7 S 39 44 21 24 1021.8 - 0.0
17/08:00pm 20.4 14.8 14.5 69 3.4 S 37 46 20 25 1021.8 - 0.0
17/07:30pm 20.4 15.3 14.7 70 3.3 S 35 43 19 23 1021.6 - 0.0
17/07:00pm 20.3 15.3 15.1 72 3.1 S 35 44 19 24 1021.3 - 0.0
17/06:30pm 20.2 15.6 15.0 72 3.1 S 33 43 18 23 1021.3 - 0.0
17/06:00pm 20.2 15.7 14.8 71 3.2 S 32 39 17 21 1020.9 1020.7 0.0
17/05:30pm 20.5 15.3 13.5 64 4.0 S 33 39 18 21 1020.7 - 0.0
17/05:00pm 20.7 16.2 12.7 60 4.5 S 28 35 15 19 1020.6 - 0.0
17/04:30pm 20.8 17.0 13.5 63 4.2 S 26 35 14 19 1020.6 - 0.0
17/04:00pm 21.0 17.4 14.2 65 4.0 S 26 32 14 17 1020.7 - 0.0
17/03:30pm 21.3 17.4 13.2 60 4.6 SSW 26 30 14 16 1020.7 - 0.0
17/03:00pm 21.8 18.3 13.4 59 4.8 S 24 32 13 17 1020.7 1020.5 0.0
17/02:30pm 22.4 19.2 13.2 56 5.3 S 22 30 12 16 1020.9 - 0.0
17/02:00pm 21.8 19.3 12.4 55 5.3 S 17 22 9 12 1021.0 - 0.0
17/01:30pm 21.5 19.4 12.4 56 5.1 S 15 19 8 10 1021.1 - 0.0
17/01:00pm 22.0 20.6 12.3 54 5.5 SSE 11 17 6 9 1021.4 - 0.0
17/12:30pm 21.3 19.6 12.4 57 5.0 SSE 13 17 7 9 1022.0 - 0.0
17/12:00pm 21.4 19.8 12.8 58 4.9 SSE 13 19 7 10 1022.3 1022.1 0.0
17/11:30am 21.3 19.4 11.9 55 5.3 SSE 13 15 7 8 1022.2 - 0.0
17/11:00am 21.9 20.6 12.5 55 5.3 ENE 11 15 6 8 1022.4 - 0.0
17/10:30am 21.2 20.7 12.6 58 4.9 ENE 7 13 4 7 1022.6 - 0.0
17/10:00am 20.4 18.9 13.1 63 4.2 NNE 13 17 7 9 1022.6 - 0.0
17/09:30am 21.1 20.2 13.8 63 4.2 NE 11 15 6 8 1022.4 - 0.0
17/09:00am 19.7 18.5 12.9 65 3.8 ENE 11 15 6 8 1022.4 1022.2 0.0
17/08:30am 19.5 18.0 13.2 67 3.6 ENE 13 17 7 9 1022.2 - 0.0
17/08:00am 19.2 18.2 13.4 69 3.3 E 11 19 6 10 1022.0 - 0.0
17/07:30am 19.1 18.1 13.3 69 3.3 E 11 13 6 7 1021.6 - 0.0
17/07:00am 19.3 18.2 12.1 63 4.0 SSE 9 15 5 8 1021.3 - 0.0
17/06:30am 18.8 15.1 11.4 62 4.1 S 22 30 12 16 1021.0 - 0.0
17/06:00am 18.0 18.6 13.1 73 2.8 E 2 7 1 4 1020.8 1020.6 0.0
17/05:30am 18.2 18.9 13.3 73 2.8 E 2 9 1 5 1020.6 - 0.0
17/05:00am 18.8 16.9 13.0 69 3.3 SSE 15 20 8 11 1020.4 - 0.0
17/04:30am 18.6 14.9 11.4 63 3.9 S 22 30 12 16 1020.1 - 0.0
17/04:00am 18.9 15.3 11.7 63 4.0 S 22 32 12 17 1019.8 - 0.0
17/03:30am 18.8 15.5 11.6 63 4.0 S 20 26 11 14 1019.9 - 0.0
17/03:00am 18.9 15.9 12.4 66 3.6 S 20 26 11 14 1019.9 1019.7 0.0
17/02:30am 19.1 15.6 12.1 64 3.9 S 22 30 12 16 1020.1 - 0.0
17/02:00am 18.9 15.9 12.4 66 3.6 SSW 20 28 11 15 1020.1 - 0.0
17/01:30am 18.9 15.0 12.2 65 3.7 S 24 35 13 19 1019.9 - 0.0
17/01:00am 18.8 14.9 12.1 65 3.7 S 24 30 13 16 1020.1 - 0.0
17/12:30am 19.0 15.1 12.0 64 3.9 S 24 33 13 18 1019.7 - 0.0
17/12:00am 18.7 14.9 12.5 67 3.5 S 24 30 13 16 1020.0 1019.8 0.0
 
Date/Time
WST
Tmp

°C
App
Tmp
°C
Dew
Point
°C
Rel
Hum
%
Delta-T

°C
Wind Press
QNH
hPa
Press
MSL
hPa
Rain
since
9 am
mm
Dir
 
Spd
km/h
Gust
km/h
Spd
kts
Gust
kts
16/11:30pm 18.9 14.9 12.9 68 3.4 S 26 35 14 19 1020.2 - 0.0
16/11:00pm 18.7 14.4 12.2 66 3.6 S 26 35 14 19 1020.3 - 0.0
16/10:30pm 18.7 14.2 12.5 67 3.5 S 28 33 15 18 1020.4 - 0.0
16/10:00pm 18.8 14.6 12.5 67 3.5 S 26 32 14 17 1020.5 - 0.0
16/09:30pm 18.9 14.5 12.9 68 3.4 S 28 33 15 18 1020.4 - 0.0
16/09:00pm 18.9 14.0 12.6 67 3.5 S 30 37 16 20 1020.2 1020.0 0.0
16/08:30pm 18.6 14.1 12.6 68 3.4 S 28 33 15 18 1020.3 - 0.0
16/08:00pm 18.8 13.9 12.5 67 3.5 S 30 37 16 20 1020.1 - 0.0
16/07:30pm 18.9 14.4 12.6 67 3.5 S 28 35 15 19 1020.1 - 0.0
16/07:00pm 18.9 14.4 12.6 67 3.5 S 28 35 15 19 1020.0 - 0.0
16/06:30pm 18.9 13.9 12.2 65 3.7 S 30 35 16 19 1019.8 - 0.0
16/06:00pm 18.9 14.3 12.2 65 3.7 S 28 35 15 19 1019.9 1019.7 0.0
16/05:30pm 19.2 14.5 12.0 63 4.0 S 28 35 15 19 1019.9 - 0.0
16/05:00pm 19.8 15.0 11.6 59 4.5 SSW 28 35 15 19 1019.9 - 0.0
16/04:30pm 20.2 15.4 11.7 58 4.7 SSW 28 33 15 18 1020.0 - 0.0
16/04:00pm 20.2 15.8 12.9 63 4.1 SSW 28 33 15 18 1020.0 - 0.0
16/03:30pm 20.6 15.9 13.3 63 4.2 S 30 35 16 19 1020.2 - 0.0
16/03:00pm 20.4 16.0 12.9 62 4.2 SSW 28 37 15 20 1020.4 1020.2 0.0
16/02:30pm 20.8 16.4 13.0 61 4.4 SSW 28 35 15 19 1020.4 - 0.0
16/02:00pm 20.8 17.0 13.5 63 4.2 S 26 32 14 17 1020.5 - 0.0
16/01:30pm 20.7 17.6 14.4 67 3.7 S 24 32 13 17 1020.8 - 0.0
16/01:00pm 20.2 17.3 13.9 67 3.6 SSW 22 28 12 15 1021.1 - 0.0
16/12:30pm 19.9 17.5 14.5 71 3.1 S 20 26 11 14 1021.6 - 0.0
16/12:00pm 19.6 17.7 14.2 71 3.1 S 17 24 9 13 1022.0 1021.8 0.0
16/11:30am 19.7 18.4 14.7 73 2.9 S 15 20 8 11 1022.4 - 0.0
16/11:00am 19.8 18.9 14.8 73 2.9 SSE 13 17 7 9 1022.8 - 0.0
16/10:30am 19.6 19.1 14.8 74 2.8 SSE 11 17 6 9 1023.0 - 0.0
16/10:00am 19.5 18.9 14.7 74 2.8 SSE 11 15 6 8 1023.3 - 0.0
16/09:30am 19.3 19.0 15.4 78 2.3 ESE 11 15 6 8 1023.3 - 0.0
16/09:00am 19.3 19.4 15.6 79 2.2 E 9 15 5 8 1023.3 1023.1 1.2
16/08:30am 19.6 18.0 13.8 69 3.3 S 15 19 8 10 1023.2 - 1.2
16/08:00am 19.3 17.5 13.2 68 3.5 S 15 19 8 10 1023.0 - 1.2
16/07:30am 19.0 16.4 13.2 69 3.3 S 19 22 10 12 1022.5 - 1.2
16/07:00am 18.9 16.1 13.3 70 3.2 S 20 24 11 13 1022.3 - 1.2
16/06:30am 18.6 15.0 13.2 71 3.1 S 24 30 13 16 1021.9 - 1.2
16/06:00am 18.6 14.1 13.7 73 2.8 S 30 35 16 19 1021.6 1021.4 1.2
16/05:30am 18.9 14.9 14.2 74 2.7 S 28 33 15 18 1021.9 - 1.2
16/05:00am 19.1 15.0 14.8 76 2.5 S 30 35 16 19 1021.7 - 1.2
16/04:30am 19.0 15.3 15.1 78 2.3 SSE 28 33 15 18 1021.6 - 1.2
16/04:00am 19.1 15.8 15.0 77 2.4 SSE 26 32 14 17 1021.6 - 1.2
16/03:30am 19.0 15.7 14.9 77 2.4 SSE 26 35 14 19 1021.4 - 1.2
16/03:00am 18.9 14.2 14.8 77 2.4 SSE 33 44 18 24 1021.1 1020.9 1.2
16/02:30am 18.8 13.8 15.1 79 2.2 SSE 35 43 19 23 1021.4 - 1.2
16/02:00am 19.1 14.5 16.0 82 1.8 S 35 43 19 23 1021.4 - 1.2
16/01:30am 19.2 15.1 16.4 84 1.7 SSE 33 41 18 22 1021.7 - 1.2
16/01:00am 19.0 14.7 16.8 87 1.3 SSE 35 41 19 22 1021.7 - 1.2
16/12:30am 18.6 14.4 18.1 97 0.3 S 37 50 20 27 1021.7 - 1.2
16/12:00am 18.8 15.7 18.5 98 0.2 S 32 39 17 21 1021.7 1021.5 0.8
 
Date/Time
WST
Tmp

°C
App
Tmp
°C
Dew
Point
°C
Rel
Hum
%
Delta-T

°C
Wind Press
QNH
hPa
Press
MSL
hPa
Rain
since
9 am
mm
Dir
 
Spd
km/h
Gust
km/h
Spd
kts
Gust
kts
15/11:30pm 19.0 17.0 18.2 95 0.5 S 26 32 14 17 1022.1 - 0.2
15/11:00pm 20.6 18.7 16.8 79 2.3 S 22 28 12 15 1022.2 - 0.0
15/10:30pm 20.4 19.6 15.2 72 3.1 S 13 17 7 9 1022.4 - 0.0
15/10:00pm 20.6 19.5 15.4 72 3.1 S 15 20 8 11 1022.6 - 0.0
15/09:30pm 20.7 18.7 15.0 70 3.4 SSW 19 24 10 13 1022.6 - 0.0
15/09:00pm 21.1 19.3 15.4 70 3.4 SSW 19 24 10 13 1022.7 1022.5 0.0
15/08:30pm 20.6 19.5 15.2 71 3.2 SSW 15 17 8 9 1022.6 - 0.0
15/08:00pm 21.0 18.6 13.9 64 4.1 SSW 19 24 10 13 1022.4 - 0.0
15/07:30pm 20.5 18.4 14.6 69 3.5 SSW 19 24 10 13 1022.5 - 0.0
15/07:00pm 20.4 18.0 13.8 66 3.8 SW 19 22 10 12 1022.2 - 0.0
15/06:30pm 21.0 18.5 14.2 65 4.0 SSW 20 26 11 14 1021.9 - 0.0
15/06:00pm 21.3 18.4 15.2 68 3.6 SSW 24 32 13 17 1021.6 1021.4 0.0
15/05:30pm 21.2 20.0 15.1 68 3.6 SW 15 19 8 10 1021.6 - 0.0
15/05:00pm 21.5 19.1 14.4 64 4.2 SW 20 26 11 14 1021.5 - 0.0
15/04:30pm 21.5 18.3 14.2 63 4.3 SSW 24 28 13 15 1021.4 - 0.0
15/04:00pm 21.6 18.3 14.0 62 4.4 SW 24 30 13 16 1021.3 - 0.0
15/03:30pm 22.4 19.3 13.5 57 5.2 SW 22 30 12 16 1021.2 - 0.0
15/03:00pm 23.5 20.6 13.9 55 5.6 SW 22 26 12 14 1021.2 1021.0 0.0
15/02:30pm 22.8 19.9 14.1 58 5.1 SW 22 28 12 15 1021.2 - 0.0
15/02:00pm 23.3 20.0 14.0 56 5.5 SW 24 30 13 16 1021.1 - 0.0
15/01:30pm 22.7 18.9 13.7 56 5.2 SW 26 33 14 18 1021.1 - 0.0
15/01:00pm 22.8 19.8 13.8 57 5.2 SW 22 28 12 15 1021.3 - 0.0
15/12:30pm 22.5 18.4 13.8 58 5.1 SW 28 35 15 19 1021.6 - 0.0
15/12:00pm 24.5 21.2 15.1 55 5.6 SW 26 33 14 18 1021.7 1021.5 0.0
15/11:30am 22.7 19.4 14.0 58 5.1 SW 24 32 13 17 1021.8 - 0.0
15/11:00am 22.1 19.4 14.5 62 4.5 SW 22 30 12 16 1021.7 - 0.0
15/10:30am 22.4 20.4 14.0 59 4.9 SW 17 26 9 14 1021.7 - 0.0
15/10:00am 22.0 20.4 13.9 60 4.7 SW 15 20 8 11 1021.5 - 0.0
15/09:30am 22.1 20.9 14.0 60 4.7 SSW 13 19 7 10 1021.3 - 0.0
15/09:00am 21.5 20.4 14.2 63 4.2 SW 13 19 7 10 1021.4 1021.2 0.2
15/08:30am 20.6 19.1 14.3 67 3.7 SW 15 19 8 10 1021.2 - 0.2
15/08:00am 20.8 20.2 14.5 67 3.7 SW 11 15 6 8 1021.0 - 0.2
15/07:30am 20.0 18.3 14.8 72 3.0 SW 17 20 9 11 1020.8 - 0.2
15/07:00am 19.8 17.8 15.0 74 2.8 SSW 19 24 10 13 1020.3 - 0.2
15/06:30am 19.4 17.5 15.3 77 2.4 SW 19 22 10 12 1020.1 - 0.2
15/06:00am 19.1 18.0 15.2 78 2.3 SW 15 20 8 11 1019.8 1019.6 0.2
15/05:30am 19.3 18.8 15.8 80 2.1 SW 13 19 7 10 1019.6 - 0.2
15/05:00am 19.3 17.9 15.6 79 2.2 SW 17 20 9 11 1019.5 - 0.2
15/04:30am 19.5 18.7 16.2 81 2.0 SW 15 19 8 10 1019.4 - 0.2
15/04:00am 19.6 18.5 16.3 81 2.0 SW 17 20 9 11 1019.4 - 0.2
15/03:30am 19.6 19.4 16.6 83 1.8 SW 13 17 7 9 1019.6 - 0.2
15/03:00am 19.7 19.0 16.5 82 1.9 WSW 15 19 8 10 1019.5 1019.3 0.2
15/02:30am 19.8 18.7 16.4 81 2.0 SW 17 20 9 11 1019.8 - 0.2
15/02:00am 19.8 19.1 16.3 80 2.1 WSW 15 17 8 9 1019.8 - 0.2
15/01:30am 20.1 19.8 16.5 80 2.2 WSW 13 17 7 9 1019.7 - 0.2
15/01:00am 20.1 19.9 16.7 81 2.1 WSW 13 17 7 9 1019.7 - 0.2
15/12:30am 20.1 19.5 16.7 81 2.1 WSW 15 17 8 9 1019.6 - 0.2
15/12:00am 20.1 20.0 16.9 82 1.9 WSW 13 17 7 9 1019.6 1019.4 0.2
 
Date/Time
WST
Tmp

°C
App
Tmp
°C
Dew
Point
°C
Rel
Hum
%
Delta-T

°C
Wind Press
QNH
hPa
Press
MSL
hPa
Rain
since
9 am
mm
Dir
 
Spd
km/h
Gust
km/h
Spd
kts
Gust
kts
14/11:30pm 20.7 21.9 17.3 81 2.1 SW 7 9 4 5 1019.6 - 0.2

Latest Capital City Observations: Canberra | Sydney | Melbourne | Brisbane | Adelaide | Perth | Hobart | Darwin

Other Formats:

Comma delimited format used in spreadsheet applications
http://www.bom.gov.au/fwo/IDW60901/IDW60901.94602.axf

JavaScript Object Notation format (JSON) in row-major order
http://www.bom.gov.au/fwo/IDW60901/IDW60901.94602.json